Argent Gerbera — V7UC4 — position and weather

sailwx.info

Track history (hours):
 
Tides and Currents Weather Stations Pressure Air Temp Water Temp Dewpoint Dewpoint Depression Visibility Wind Speed Wind Dir Waves Ship Positions

Argent Gerbera

Last reported at 2017-Jul-15 20:18 UTC. Time now 2017-Jul-25 02:27 UTC.
Position N 01°14' E 104°01'.
Warning: this ship's position is 9 days out of date.

Length 175 m; draft 7.5 m.

Type: Ship (hazmat cat B). MMSI: 538003929.

Date/timePositionNaut miles runAvg speedWind from/ knotsBaromVisibWave heightAir tempDewpointWater temp
2017-Jul-15 20:18N 01°14' E 104°01'415.4
2017-Jul-15 20:00N 01°13' E 103°57'714.4
2017-Jul-15 19:30N 01°11' E 103°50'714.4
2017-Jul-15 19:00N 01°06' E 103°44'713.8
2017-Jul-15 18:30N 01°03' E 103°38'714.0
2017-Jul-15 18:00N 01°06' E 103°32'714.7
2017-Jul-15 17:30N 01°10' E 103°26'814.5
2017-Jul-15 16:58N 01°15' E 103°20'  
2017-Jul-07 07:40N 01°18' E 103°21'215.4
2017-Jul-07 07:30N 01°16' E 103°23'815.4
2017-Jul-07 07:00N 01°13' E 103°30'715.0
2017-Jul-07 06:30N 01°12' E 103°38'2 4.1
2017-Jul-07 06:00N 01°13' E 103°39'0 0.1
2017-Jul-07 05:25N 01°13' E 103°39'0 0.0
2017-Jul-07 04:58N 01°13' E 103°39'0 0.1
2017-Jul-07 04:19N 01°13' E 103°39'0 0.2
2017-Jul-07 03:55N 01°13' E 103°39'0 0.2
2017-Jul-07 03:28N 01°13' E 103°39'0 0.0
2017-Jul-07 01:13N 01°13' E 103°39'0 0.2
2017-Jul-07 00:49N 01°13' E 103°39'0 0.0
2017-Jul-06 22:25N 01°13' E 103°39'  
Track history (hours):
 
Tides and Currents Weather Stations Pressure Air Temp Water Temp Dewpoint Dewpoint Depression Visibility Wind Speed Wind Dir Waves Ship Positions

Argent Gerbera

Last reported at 2017-Jul-15 20:18 UTC. Time now 2017-Jul-25 02:27 UTC.
Position N 01°14' E 104°01'.
Warning: this ship's position is 9 days out of date.

Length 175 m; draft 7.5 m.

Type: Ship (hazmat cat B). MMSI: 538003929.

Date/timePositionNaut miles runAvg speedWind from/ knotsBaromVisibWave heightAir tempDewpointWater temp
2017-Jul-15 20:18N 01°14' E 104°01'415.4
2017-Jul-15 20:00N 01°13' E 103°57'714.4
2017-Jul-15 19:30N 01°11' E 103°50'714.4
2017-Jul-15 19:00N 01°06' E 103°44'713.8
2017-Jul-15 18:30N 01°03' E 103°38'714.0
2017-Jul-15 18:00N 01°06' E 103°32'714.7
2017-Jul-15 17:30N 01°10' E 103°26'814.5
2017-Jul-15 16:58N 01°15' E 103°20'  
2017-Jul-07 07:40N 01°18' E 103°21'215.4
2017-Jul-07 07:30N 01°16' E 103°23'815.4
2017-Jul-07 07:00N 01°13' E 103°30'715.0
2017-Jul-07 06:30N 01°12' E 103°38'2 4.1
2017-Jul-07 06:00N 01°13' E 103°39'0 0.1
2017-Jul-07 05:25N 01°13' E 103°39'0 0.0
2017-Jul-07 04:58N 01°13' E 103°39'0 0.1
2017-Jul-07 04:19N 01°13' E 103°39'0 0.2
2017-Jul-07 03:55N 01°13' E 103°39'0 0.2
2017-Jul-07 03:28N 01°13' E 103°39'0 0.0
2017-Jul-07 01:13N 01°13' E 103°39'0 0.2
2017-Jul-07 00:49N 01°13' E 103°39'0 0.0
2017-Jul-06 22:25N 01°13' E 103°39'  

Dump ship's entire track history